sensor_id;sensor_type;location;lat;lon;timestamp;pressure;altitude;pressure_sealevel;temperature;humidity
4836;BME280;2432;51.226;6.904;2022-09-01T00:00:43;101287.13;;;18.94;66.43
4836;BME280;2432;51.226;6.904;2022-09-01T00:03:10;101290.13;;;18.86;66.35
4836;BME280;2432;51.226;6.904;2022-09-01T00:05:37;101293.88;;;18.81;66.74
4836;BME280;2432;51.226;6.904;2022-09-01T00:08:04;101287.72;;;18.80;66.58
4836;BME280;2432;51.226;6.904;2022-09-01T00:10:31;101287.72;;;18.80;66.08
4836;BME280;2432;51.226;6.904;2022-09-01T00:12:58;101286.78;;;18.81;66.14
4836;BME280;2432;51.226;6.904;2022-09-01T00:15:25;101287.66;;;18.82;66.51
4836;BME280;2432;51.226;6.904;2022-09-01T00:17:51;101287.72;;;18.80;66.35
4836;BME280;2432;51.226;6.904;2022-09-01T00:20:18;101298.53;;;18.76;66.50
4836;BME280;2432;51.226;6.904;2022-09-01T00:22:46;101296.88;;;18.73;67.03
4836;BME280;2432;51.226;6.904;2022-09-01T00:25:13;101296.25;;;18.67;67.56
4836;BME280;2432;51.226;6.904;2022-09-01T00:27:39;101301.56;;;18.67;68.01
4836;BME280;2432;51.226;6.904;2022-09-01T00:30:06;101299.22;;;18.59;67.17
4836;BME280;2432;51.226;6.904;2022-09-01T00:32:33;101303.63;;;18.60;68.48
4836;BME280;2432;51.226;6.904;2022-09-01T00:35:00;101296.63;;;18.57;68.49
4836;BME280;2432;51.226;6.904;2022-09-01T00:37:27;101292.31;;;18.55;68.19
4836;BME280;2432;51.226;6.904;2022-09-01T00:39:53;101296.56;;;18.59;67.79
4836;BME280;2432;51.226;6.904;2022-09-01T00:42:20;101292.06;;;18.61;67.80
4836;BME280;2432;51.226;6.904;2022-09-01T00:44:46;101290.53;;;18.55;68.52
4836;BME280;2432;51.226;6.904;2022-09-01T00:47:13;101289.00;;;18.50;70.09
4836;BME280;2432;51.226;6.904;2022-09-01T00:49:43;101284.69;;;18.47;70.12
4836;BME280;2432;51.226;6.904;2022-09-01T00:52:18;101287.47;;;18.44;69.49
4836;BME280;2432;51.226;6.904;2022-09-01T00:54:49;101290.25;;;18.41;69.52
4836;BME280;2432;51.226;6.904;2022-09-01T00:57:18;101291.16;;;18.40;69.98
4836;BME280;2432;51.226;6.904;2022-09-01T00:59:51;101287.53;;;18.43;70.45
4836;BME280;2432;51.226;6.904;2022-09-01T01:02:18;101287.53;;;18.43;70.61
4836;BME280;2432;51.226;6.904;2022-09-01T01:04:45;101278.78;;;18.41;70.41
4836;BME280;2432;51.226;6.904;2022-09-01T01:07:12;101287.66;;;18.40;70.17
4836;BME280;2432;51.226;6.904;2022-09-01T01:09:41;101281.63;;;18.36;71.05
4836;BME280;2432;51.226;6.904;2022-09-01T01:12:09;101280.63;;;18.39;71.47
4836;BME280;2432;51.226;6.904;2022-09-01T01:14:39;101279.63;;;18.41;71.43
4836;BME280;2432;51.226;6.904;2022-09-01T01:17:11;101282.75;;;18.30;70.69
4836;BME280;2432;51.226;6.904;2022-09-01T01:19:42;101280.16;;;18.29;73.02
4836;BME280;2432;51.226;6.904;2022-09-01T01:25:37;101283.53;;;18.32;70.59
4836;BME280;2432;51.226;6.904;2022-09-01T01:28:08;101289.50;;;18.38;71.40
4836;BME280;2432;51.226;6.904;2022-09-01T01:30:38;101283.13;;;18.42;71.12
4836;BME280;2432;51.226;6.904;2022-09-01T01:33:06;101284.75;;;18.46;72.51
4836;BME280;2432;51.226;6.904;2022-09-01T01:35:33;101286.53;;;18.45;71.57
4836;BME280;2432;51.226;6.904;2022-09-01T01:38:02;101291.00;;;18.45;72.31
4836;BME280;2432;51.226;6.904;2022-09-01T01:40:32;101298.94;;;18.45;72.44
4836;BME280;2432;51.226;6.904;2022-09-01T01:42:59;101293.56;;;18.46;72.43
4836;BME280;2432;51.226;6.904;2022-09-01T01:45:29;101289.19;;;18.45;71.77
4836;BME280;2432;51.226;6.904;2022-09-01T01:47:56;101295.50;;;18.43;73.39
4836;BME280;2432;51.226;6.904;2022-09-01T01:50:29;101301.06;;;18.36;72.79
4836;BME280;2432;51.226;6.904;2022-09-01T01:52:59;101303.84;;;18.33;73.24
4836;BME280;2432;51.226;6.904;2022-09-01T01:55:28;101302.38;;;18.26;72.38
4836;BME280;2432;51.226;6.904;2022-09-01T01:57:57;101294.47;;;18.25;73.14
4836;BME280;2432;51.226;6.904;2022-09-01T02:00:27;101305.13;;;18.23;73.42
4836;BME280;2432;51.226;6.904;2022-09-01T02:02:57;101305.97;;;18.24;73.49
4836;BME280;2432;51.226;6.904;2022-09-01T02:05:28;101310.50;;;18.22;74.16
4836;BME280;2432;51.226;6.904;2022-09-01T02:07:57;101300.66;;;18.25;74.45
4836;BME280;2432;51.226;6.904;2022-09-01T02:10:27;101310.31;;;18.26;74.87
4836;BME280;2432;51.226;6.904;2022-09-01T02:13:00;101304.31;;;18.21;74.67
4836;BME280;2432;51.226;6.904;2022-09-01T02:15:35;101307.22;;;18.15;74.70
4836;BME280;2432;51.226;6.904;2022-09-01T02:18:08;101308.03;;;18.17;76.42
4836;BME280;2432;51.226;6.904;2022-09-01T02:20:34;101298.53;;;18.12;76.38
4836;BME280;2432;51.226;6.904;2022-09-01T02:23:01;101318.75;;;18.14;76.36
4836;BME280;2432;51.226;6.904;2022-09-01T02:25:35;101303.91;;;18.10;74.77
4836;BME280;2432;51.226;6.904;2022-09-01T02:28:21;101302.91;;;18.13;74.63
4836;BME280;2432;51.226;6.904;2022-09-01T02:30:51;101301.03;;;18.16;74.64
4836;BME280;2432;51.226;6.904;2022-09-01T02:33:21;101309.88;;;18.15;74.88
4836;BME280;2432;51.226;6.904;2022-09-01T02:35:53;101298.75;;;18.07;75.78
4836;BME280;2432;51.226;6.904;2022-09-01T02:38:20;101301.41;;;18.07;76.75
4836;BME280;2432;51.226;6.904;2022-09-01T02:40:52;101297.00;;;18.06;77.24
4836;BME280;2432;51.226;6.904;2022-09-01T02:43:20;101298.06;;;18.02;76.48
4836;BME280;2432;51.226;6.904;2022-09-01T02:45:48;101307.03;;;17.98;75.88
4836;BME280;2432;51.226;6.904;2022-09-01T02:48:28;101296.56;;;17.95;77.09
4836;BME280;2432;51.226;6.904;2022-09-01T02:51:11;101297.63;;;17.91;77.94
4836;BME280;2432;51.226;6.904;2022-09-01T02:53:41;101299.22;;;17.95;77.85
4836;BME280;2432;51.226;6.904;2022-09-01T02:56:10;101297.63;;;17.91;77.98
4836;BME280;2432;51.226;6.904;2022-09-01T02:58:42;101302.28;;;17.84;77.46
4836;BME280;2432;51.226;6.904;2022-09-01T03:01:25;101301.44;;;17.84;77.86
4836;BME280;2432;51.226;6.904;2022-09-01T03:03:55;101297.22;;;17.78;77.25
4836;BME280;2432;51.226;6.904;2022-09-01T03:06:23;101293.50;;;17.84;77.43
4836;BME280;2432;51.226;6.904;2022-09-01T03:08:55;101302.22;;;17.86;76.82
4836;BME280;2432;51.226;6.904;2022-09-01T03:11:22;101300.38;;;17.88;77.15
4836;BME280;2432;51.226;6.904;2022-09-01T03:13:50;101296.75;;;17.90;76.29
4836;BME280;2432;51.226;6.904;2022-09-01T03:16:17;101294.91;;;17.92;75.82
4836;BME280;2432;51.226;6.904;2022-09-01T03:18:44;101302.97;;;17.89;74.73
4836;BME280;2432;51.226;6.904;2022-09-01T03:21:11;101307.31;;;17.92;74.49
4836;BME280;2432;51.226;6.904;2022-09-01T03:23:46;101309.03;;;17.93;74.17
4836;BME280;2432;51.226;6.904;2022-09-01T03:26:14;101299.41;;;17.90;74.44
4836;BME280;2432;51.226;6.904;2022-09-01T03:28:41;101312.59;;;17.92;74.18
4836;BME280;2432;51.226;6.904;2022-09-01T03:31:08;101309.09;;;17.91;74.39
4836;BME280;2432;51.226;6.904;2022-09-01T03:33:34;101311.91;;;17.87;73.84
4836;BME280;2432;51.226;6.904;2022-09-01T03:36:03;101304.19;;;17.80;75.35
4836;BME280;2432;51.226;6.904;2022-09-01T03:38:29;101305.19;;;17.78;75.31
4836;BME280;2432;51.226;6.904;2022-09-01T03:41:01;101303.47;;;17.77;75.46
4836;BME280;2432;51.226;6.904;2022-09-01T03:43:31;101306.31;;;17.72;74.34
4836;BME280;2432;51.226;6.904;2022-09-01T03:46:01;101307.19;;;17.71;75.06
4836;BME280;2432;51.226;6.904;2022-09-01T03:48:29;101294.91;;;17.69;74.45
4836;BME280;2432;51.226;6.904;2022-09-01T03:50:58;101295.84;;;17.68;74.46
4836;BME280;2432;51.226;6.904;2022-09-01T03:53:31;101298.53;;;17.66;74.78
4836;BME280;2432;51.226;6.904;2022-09-01T03:55:58;101291.59;;;17.64;74.29
4836;BME280;2432;51.226;6.904;2022-09-01T03:58:26;101292.38;;;17.66;75.17
4836;BME280;2432;51.226;6.904;2022-09-01T04:00:55;101293.34;;;17.63;74.70
4836;BME280;2432;51.226;6.904;2022-09-01T04:03:24;101287.19;;;17.63;74.65
4836;BME280;2432;51.226;6.904;2022-09-01T04:05:55;101290.16;;;17.55;75.33
4836;BME280;2432;51.226;6.904;2022-09-01T04:08:23;101291.06;;;17.54;74.13
4836;BME280;2432;51.226;6.904;2022-09-01T04:11:00;101283.38;;;17.48;74.97
4836;BME280;2432;51.226;6.904;2022-09-01T04:13:37;101286.09;;;17.45;77.36
4836;BME280;2432;51.226;6.904;2022-09-01T04:16:05;101287.16;;;17.41;75.93
4836;BME280;2432;51.226;6.904;2022-09-01T04:18:55;101287.59;;;17.29;76.40
4836;BME280;2432;51.226;6.904;2022-09-01T04:21:21;101282.19;;;17.08;77.74
4836;BME280;2432;51.226;6.904;2022-09-01T04:23:48;101284.19;;;17.02;77.47
4836;BME280;2432;51.226;6.904;2022-09-01T04:26:14;101285.06;;;17.02;78.11
4836;BME280;2432;51.226;6.904;2022-09-01T04:28:47;101286.69;;;17.06;79.08
4836;BME280;2432;51.226;6.904;2022-09-01T04:31:17;101283.81;;;17.12;78.31
4836;BME280;2432;51.226;6.904;2022-09-01T04:33:47;101286.63;;;17.08;77.25
4836;BME280;2432;51.226;6.904;2022-09-01T04:36:17;101283.22;;;17.04;77.57
4836;BME280;2432;51.226;6.904;2022-09-01T04:38:46;101282.19;;;17.08;76.58
4836;BME280;2432;51.226;6.904;2022-09-01T04:41:13;101285.81;;;17.06;77.00
4836;BME280;2432;51.226;6.904;2022-09-01T04:43:43;101288.41;;;17.07;77.86
4836;BME280;2432;51.226;6.904;2022-09-01T04:46:16;101286.03;;;17.00;77.42
4836;BME280;2432;51.226;6.904;2022-09-01T04:48:46;101292.25;;;16.99;77.64
4836;BME280;2432;51.226;6.904;2022-09-01T04:51:13;101292.19;;;17.00;78.40
4836;BME280;2432;51.226;6.904;2022-09-01T04:53:41;101281.59;;;17.00;77.21
4836;BME280;2432;51.226;6.904;2022-09-01T04:56:19;101292.25;;;16.99;77.40
4836;BME280;2432;51.226;6.904;2022-09-01T04:58:46;101299.25;;;17.00;76.99
4836;BME280;2432;51.226;6.904;2022-09-01T05:01:20;101290.19;;;17.07;76.34
4836;BME280;2432;51.226;6.904;2022-09-01T05:03:48;101291.78;;;17.11;75.62
4836;BME280;2432;51.226;6.904;2022-09-01T05:06:22;101293.47;;;17.13;76.17
4836;BME280;2432;51.226;6.904;2022-09-01T05:08:48;101287.34;;;17.11;75.72
4836;BME280;2432;51.226;6.904;2022-09-01T05:11:15;101289.13;;;17.12;75.90
4836;BME280;2432;51.226;6.904;2022-09-01T05:13:44;101284.84;;;17.08;75.24
4836;BME280;2432;51.226;6.904;2022-09-01T05:16:13;101288.28;;;17.10;76.22
4836;BME280;2432;51.226;6.904;2022-09-01T05:18:45;101287.28;;;17.14;76.23
4836;BME280;2432;51.226;6.904;2022-09-01T05:21:16;101295.22;;;17.14;75.92
4836;BME280;2432;51.226;6.904;2022-09-01T05:23:44;101285.53;;;17.13;75.29
4836;BME280;2432;51.226;6.904;2022-09-01T05:26:17;101292.63;;;17.13;75.93
4836;BME280;2432;51.226;6.904;2022-09-01T05:28:49;101294.41;;;17.12;75.77
4836;BME280;2432;51.226;6.904;2022-09-01T05:31:16;101289.13;;;17.12;76.28
4836;BME280;2432;51.226;6.904;2022-09-01T05:33:46;101296.06;;;17.15;75.21
4836;BME280;2432;51.226;6.904;2022-09-01T05:36:15;101295.94;;;17.18;76.01
4836;BME280;2432;51.226;6.904;2022-09-01T05:38:43;101294.09;;;17.20;75.57
4836;BME280;2432;51.226;6.904;2022-09-01T05:41:12;101294.09;;;17.20;75.33
4836;BME280;2432;51.226;6.904;2022-09-01T05:43:44;101295.88;;;17.19;75.41
4836;BME280;2432;51.226;6.904;2022-09-01T05:46:13;101297.63;;;17.20;75.22
4836;BME280;2432;51.226;6.904;2022-09-01T05:48:43;101297.50;;;17.23;75.57
4836;BME280;2432;51.226;6.904;2022-09-01T05:51:11;101296.66;;;17.23;74.54
4836;BME280;2432;51.226;6.904;2022-09-01T05:54:03;101301.81;;;17.26;74.65
4836;BME280;2432;51.226;6.904;2022-09-01T05:56:35;101305.34;;;17.27;75.07
4836;BME280;2432;51.226;6.904;2022-09-01T05:59:11;101303.53;;;17.27;74.91
4836;BME280;2432;51.226;6.904;2022-09-01T06:01:54;101308.84;;;17.27;75.98
4836;BME280;2432;51.226;6.904;2022-09-01T06:04:22;101311.34;;;17.32;75.31
4836;BME280;2432;51.226;6.904;2022-09-01T06:06:51;101311.34;;;17.32;74.70
4836;BME280;2432;51.226;6.904;2022-09-01T06:09:46;101312.25;;;17.31;75.47
4836;BME280;2432;51.226;6.904;2022-09-01T06:12:14;101313.06;;;17.33;75.08
4836;BME280;2432;51.226;6.904;2022-09-01T06:14:46;101308.63;;;17.33;76.08
4836;BME280;2432;51.226;6.904;2022-09-01T06:17:13;101309.50;;;17.34;76.39
4836;BME280;2432;51.226;6.904;2022-09-01T06:19:42;101317.50;;;17.32;76.47
4836;BME280;2432;51.226;6.904;2022-09-01T06:22:09;101310.34;;;17.34;75.44
4836;BME280;2432;51.226;6.904;2022-09-01T06:24:37;101311.22;;;17.35;76.26
4836;BME280;2432;51.226;6.904;2022-09-01T06:27:08;101313.78;;;17.36;76.55
4836;BME280;2432;51.226;6.904;2022-09-01T06:29:36;101306.78;;;17.35;76.30
4836;BME280;2432;51.226;6.904;2022-09-01T06:32:06;101306.78;;;17.35;75.51
4836;BME280;2432;51.226;6.904;2022-09-01T06:34:40;101309.38;;;17.37;76.32
4836;BME280;2432;51.226;6.904;2022-09-01T06:37:11;101310.13;;;17.40;76.53
4836;BME280;2432;51.226;6.904;2022-09-01T06:39:38;101306.56;;;17.41;77.00
4836;BME280;2432;51.226;6.904;2022-09-01T06:42:05;101308.34;;;17.41;75.39
4836;BME280;2432;51.226;6.904;2022-09-01T06:44:34;101306.63;;;17.40;75.05
4836;BME280;2432;51.226;6.904;2022-09-01T06:47:06;101313.50;;;17.44;75.10
4836;BME280;2432;51.226;6.904;2022-09-01T06:49:34;101316.97;;;17.46;74.68
4836;BME280;2432;51.226;6.904;2022-09-01T06:52:03;101310.66;;;17.50;75.23
4836;BME280;2432;51.226;6.904;2022-09-01T06:54:30;101312.31;;;17.52;74.22
4836;BME280;2432;51.226;6.904;2022-09-01T06:57:01;101314.00;;;17.55;73.98
4836;BME280;2432;51.226;6.904;2022-09-01T06:59:49;101319.16;;;17.58;74.70
4836;BME280;2432;51.226;6.904;2022-09-01T07:02:36;101310.16;;;17.62;74.44
4836;BME280;2432;51.226;6.904;2022-09-01T07:05:05;101316.16;;;17.67;73.84
4836;BME280;2432;51.226;6.904;2022-09-01T07:07:33;101317.75;;;17.73;75.52
4836;BME280;2432;51.226;6.904;2022-09-01T07:10:21;101315.84;;;17.76;75.22
4836;BME280;2432;51.226;6.904;2022-09-01T07:12:51;101318.34;;;17.79;74.43
4836;BME280;2432;51.226;6.904;2022-09-01T07:15:39;101323.56;;;17.83;74.00
4836;BME280;2432;51.226;6.904;2022-09-01T07:18:26;101318.06;;;17.87;73.23
4836;BME280;2432;51.226;6.904;2022-09-01T07:20:54;101324.91;;;17.93;72.40
4836;BME280;2432;51.226;6.904;2022-09-01T07:23:33;101322.13;;;17.96;71.50
4836;BME280;2432;51.226;6.904;2022-09-01T07:26:21;101328.13;;;18.01;71.56
4836;BME280;2432;51.226;6.904;2022-09-01T07:28:52;101324.44;;;18.05;71.11
4836;BME280;2432;51.226;6.904;2022-09-01T07:31:29;101319.94;;;18.07;71.34
4836;BME280;2432;51.226;6.904;2022-09-01T07:34:21;101318.09;;;18.09;70.61
4836;BME280;2432;51.226;6.904;2022-09-01T07:37:05;101322.34;;;18.13;70.24
4836;BME280;2432;51.226;6.904;2022-09-01T07:39:51;101314.31;;;18.15;70.26
4836;BME280;2432;51.226;6.904;2022-09-01T07:42:19;101319.50;;;18.18;68.87
4836;BME280;2432;51.226;6.904;2022-09-01T07:45:07;101315.88;;;18.20;69.66
4836;BME280;2432;51.226;6.904;2022-09-01T07:47:54;101317.41;;;18.26;68.52
4836;BME280;2432;51.226;6.904;2022-09-01T07:50:22;101319.06;;;18.28;68.55
4836;BME280;2432;51.226;6.904;2022-09-01T07:53:07;101316.41;;;18.28;68.40
4836;BME280;2432;51.226;6.904;2022-09-01T07:55:40;101320.53;;;18.35;64.98
4836;BME280;2432;51.226;6.904;2022-09-01T07:58:10;101313.44;;;18.36;66.23
4836;BME280;2432;51.226;6.904;2022-09-01T08:00:38;101320.47;;;18.37;66.02
4836;BME280;2432;51.226;6.904;2022-09-01T08:03:05;101318.38;;;18.45;66.01
4836;BME280;2432;51.226;6.904;2022-09-01T08:05:32;101322.69;;;18.48;66.53
4836;BME280;2432;51.226;6.904;2022-09-01T08:07:59;101322.56;;;18.51;66.61
4836;BME280;2432;51.226;6.904;2022-09-01T08:10:26;101321.56;;;18.53;66.21
4836;BME280;2432;51.226;6.904;2022-09-01T08:12:53;101313.41;;;18.58;65.39
4836;BME280;2432;51.226;6.904;2022-09-01T08:15:23;101322.03;;;18.63;66.50
4836;BME280;2432;51.226;6.904;2022-09-01T08:18:10;101320.25;;;18.63;65.54
4836;BME280;2432;51.226;6.904;2022-09-01T08:20:39;101324.25;;;18.74;65.07
4836;BME280;2432;51.226;6.904;2022-09-01T08:23:12;101324.09;;;18.78;64.18
4836;BME280;2432;51.226;6.904;2022-09-01T08:25:41;101320.34;;;18.82;63.61
4836;BME280;2432;51.226;6.904;2022-09-01T08:28:07;101322.06;;;18.83;62.66
4836;BME280;2432;51.226;6.904;2022-09-01T08:30:37;101315.84;;;18.84;61.20
4836;BME280;2432;51.226;6.904;2022-09-01T08:33:04;101313.00;;;18.89;60.15
4836;BME280;2432;51.226;6.904;2022-09-01T08:35:40;101311.00;;;18.94;61.08
4836;BME280;2432;51.226;6.904;2022-09-01T08:38:08;101311.59;;;19.01;57.98
4836;BME280;2432;51.226;6.904;2022-09-01T08:40:35;101311.47;;;19.04;57.34
4836;BME280;2432;51.226;6.904;2022-09-01T08:45:52;101309.19;;;19.15;54.22
4836;BME280;2432;51.226;6.904;2022-09-01T08:48:25;101316.75;;;19.24;54.14
4836;BME280;2432;51.226;6.904;2022-09-01T08:51:19;101311.28;;;19.27;52.15
4836;BME280;2432;51.226;6.904;2022-09-01T08:56:27;101306.28;;;19.40;50.83
4836;BME280;2432;51.226;6.904;2022-09-01T08:58:53;101316.13;;;19.38;52.30
4836;BME280;2432;51.226;6.904;2022-09-01T09:01:30;101313.81;;;19.30;51.65
4836;BME280;2432;51.226;6.904;2022-09-01T09:07:04;101312.19;;;19.46;49.53
4836;BME280;2432;51.226;6.904;2022-09-01T09:09:48;101307.44;;;19.53;48.01
4836;BME280;2432;51.226;6.904;2022-09-01T09:12:35;101307.00;;;19.43;49.36
4836;BME280;2432;51.226;6.904;2022-09-01T09:15:43;101309.66;;;19.43;49.28
4836;BME280;2432;51.226;6.904;2022-09-01T09:18:38;101308.13;;;19.58;48.10
4836;BME280;2432;51.226;6.904;2022-09-01T09:21:17;101302.47;;;19.66;47.79
4836;BME280;2432;51.226;6.904;2022-09-01T09:23:47;101299.50;;;19.72;48.36
4836;BME280;2432;51.226;6.904;2022-09-01T09:26:16;101297.84;;;19.69;49.14
4836;BME280;2432;51.226;6.904;2022-09-01T09:28:48;101291.84;;;19.66;48.94
4836;BME280;2432;51.226;6.904;2022-09-01T09:31:25;101294.34;;;19.69;49.76
4836;BME280;2432;51.226;6.904;2022-09-01T09:33:52;101292.97;;;19.79;48.82
4836;BME280;2432;51.226;6.904;2022-09-01T09:36:28;101287.44;;;19.84;48.47
4836;BME280;2432;51.226;6.904;2022-09-01T09:41:32;101286.16;;;19.73;49.93
4836;BME280;2432;51.226;6.904;2022-09-01T09:44:03;101278.38;;;19.69;49.46
4836;BME280;2432;51.226;6.904;2022-09-01T09:49:16;101272.91;;;19.91;48.77
4836;BME280;2432;51.226;6.904;2022-09-01T09:54:33;101267.28;;;19.97;48.80
4836;BME280;2432;51.226;6.904;2022-09-01T09:59:34;101263.72;;;20.15;49.10
4836;BME280;2432;51.226;6.904;2022-09-01T10:02:35;101248.38;;;20.03;49.57
4836;BME280;2432;51.226;6.904;2022-09-01T10:05:24;101248.94;;;20.10;47.62
4836;BME280;2432;51.226;6.904;2022-09-01T10:07:53;101257.06;;;20.07;48.29
4836;BME280;2432;51.226;6.904;2022-09-01T10:12:57;101241.81;;;20.10;48.18
4836;BME280;2432;51.226;6.904;2022-09-01T10:15:27;101237.06;;;20.17;48.67
4836;BME280;2432;51.226;6.904;2022-09-01T10:18:00;101236.91;;;20.20;49.09
4836;BME280;2432;51.226;6.904;2022-09-01T10:20:59;101245.06;;;20.34;48.35
4836;BME280;2432;51.226;6.904;2022-09-01T10:23:29;101233.56;;;20.33;48.60
4836;BME280;2432;51.226;6.904;2022-09-01T10:26:04;101228.72;;;20.24;47.24
4836;BME280;2432;51.226;6.904;2022-09-01T10:28:43;101238.00;;;20.16;48.24
4836;BME280;2432;51.226;6.904;2022-09-01T10:31:16;101229.69;;;20.22;48.77
4836;BME280;2432;51.226;6.904;2022-09-01T10:33:43;101220.72;;;20.24;48.98
4836;BME280;2432;51.226;6.904;2022-09-01T10:36:12;101229.88;;;20.19;48.11
4836;BME280;2432;51.226;6.904;2022-09-01T10:38:41;101221.59;;;20.25;48.44
4836;BME280;2432;51.226;6.904;2022-09-01T10:41:53;101226.13;;;20.57;46.56
4836;BME280;2432;51.226;6.904;2022-09-01T10:44:32;101221.03;;;20.70;48.34
4836;BME280;2432;51.226;6.904;2022-09-01T10:47:25;101226.28;;;20.72;47.06
4836;BME280;2432;51.226;6.904;2022-09-01T10:49:58;101224.06;;;20.80;47.24
4836;BME280;2432;51.226;6.904;2022-09-01T11:00:53;101215.63;;;20.72;48.39
4836;BME280;2432;51.226;6.904;2022-09-01T11:03:52;101215.84;;;20.67;48.83
4836;BME280;2432;51.226;6.904;2022-09-01T11:09:21;101205.16;;;20.84;47.99
4836;BME280;2432;51.226;6.904;2022-09-01T11:14:57;101204.13;;;21.20;47.85
4836;BME280;2432;51.226;6.904;2022-09-01T11:28:51;101208.19;;;21.27;46.95
4836;BME280;2432;51.226;6.904;2022-09-01T11:31:18;101210.66;;;21.14;47.48
4836;BME280;2432;51.226;6.904;2022-09-01T11:44:34;101198.09;;;21.16;45.72
4836;BME280;2432;51.226;6.904;2022-09-01T11:47:11;101191.97;;;21.48;44.64
4836;BME280;2432;51.226;6.904;2022-09-01T11:49:52;101190.59;;;21.56;44.57
4836;BME280;2432;51.226;6.904;2022-09-01T11:52:22;101185.28;;;21.86;46.11
4836;BME280;2432;51.226;6.904;2022-09-01T11:54:50;101191.22;;;22.07;44.76
4836;BME280;2432;51.226;6.904;2022-09-01T11:57:21;101192.94;;;22.08;43.51
4836;BME280;2432;51.226;6.904;2022-09-01T11:59:48;101190.94;;;21.96;45.17
4836;BME280;2432;51.226;6.904;2022-09-01T12:02:32;101184.75;;;21.95;45.67
4836;BME280;2432;51.226;6.904;2022-09-01T12:07:57;101186.59;;;21.79;45.83
4836;BME280;2432;51.226;6.904;2022-09-01T12:10:38;101182.06;;;21.81;45.84
4836;BME280;2432;51.226;6.904;2022-09-01T12:13:06;101172.41;;;21.79;45.59
4836;BME280;2432;51.226;6.904;2022-09-01T12:15:36;101171.50;;;21.94;44.74
4836;BME280;2432;51.226;6.904;2022-09-01T12:18:29;101164.72;;;21.88;46.03
4836;BME280;2432;51.226;6.904;2022-09-01T12:21:00;101164.78;;;21.72;47.09
4836;BME280;2432;51.226;6.904;2022-09-01T12:23:30;101165.03;;;21.68;48.05
4836;BME280;2432;51.226;6.904;2022-09-01T12:26:00;101160.94;;;21.92;44.87
4836;BME280;2432;51.226;6.904;2022-09-01T12:28:30;101153.06;;;22.35;44.85
4836;BME280;2432;51.226;6.904;2022-09-01T12:31:00;101161.28;;;22.75;44.61
4836;BME280;2432;51.226;6.904;2022-09-01T12:33:32;101155.91;;;23.18;43.58
4836;BME280;2432;51.226;6.904;2022-09-01T12:38:52;101155.41;;;24.06;46.23
4836;BME280;2432;51.226;6.904;2022-09-01T12:41:38;101157.97;;;24.35;42.50
4836;BME280;2432;51.226;6.904;2022-09-01T12:47:08;101146.88;;;24.90;40.05
4836;BME280;2432;51.226;6.904;2022-09-01T12:49:46;101150.22;;;24.81;43.01
4836;BME280;2432;51.226;6.904;2022-09-01T12:57:32;101134.66;;;25.72;43.06
4836;BME280;2432;51.226;6.904;2022-09-01T13:00:09;101143.47;;;25.61;39.30
4836;BME280;2432;51.226;6.904;2022-09-01T13:02:43;101121.94;;;25.50;41.49
4836;BME280;2432;51.226;6.904;2022-09-01T13:05:31;101132.66;;;25.26;41.43
4836;BME280;2432;51.226;6.904;2022-09-01T13:08:16;101127.28;;;25.63;41.44
4836;BME280;2432;51.226;6.904;2022-09-01T13:10:46;101126.50;;;25.85;41.87
4836;BME280;2432;51.226;6.904;2022-09-01T13:13:14;101123.41;;;26.02;38.79
4836;BME280;2432;51.226;6.904;2022-09-01T13:15:47;101115.19;;;25.69;41.40
4836;BME280;2432;51.226;6.904;2022-09-01T13:18:16;101115.63;;;25.75;40.85
4836;BME280;2432;51.226;6.904;2022-09-01T13:20:44;101106.34;;;25.79;39.57
4836;BME280;2432;51.226;6.904;2022-09-01T13:23:11;101119.31;;;25.85;41.38
4836;BME280;2432;51.226;6.904;2022-09-01T13:25:38;101109.81;;;25.92;38.31
4836;BME280;2432;51.226;6.904;2022-09-01T13:28:06;101108.13;;;26.03;39.49
4836;BME280;2432;51.226;6.904;2022-09-01T13:30:33;101112.91;;;25.99;38.43
4836;BME280;2432;51.226;6.904;2022-09-01T13:33:00;101103.47;;;25.82;39.45
4836;BME280;2432;51.226;6.904;2022-09-01T13:35:48;101100.94;;;25.68;40.27
4836;BME280;2432;51.226;6.904;2022-09-01T13:38:15;101098.91;;;25.24;40.58
4836;BME280;2432;51.226;6.904;2022-09-01T13:40:44;101101.50;;;24.76;42.37
4836;BME280;2432;51.226;6.904;2022-09-01T13:43:17;101103.97;;;24.41;43.68
4836;BME280;2432;51.226;6.904;2022-09-01T13:45:45;101099.88;;;24.10;44.09
4836;BME280;2432;51.226;6.904;2022-09-01T13:48:12;101103.06;;;23.89;44.82
4836;BME280;2432;51.226;6.904;2022-09-01T13:50:42;101097.06;;;23.73;45.04
4836;BME280;2432;51.226;6.904;2022-09-01T13:53:29;101091.72;;;23.59;48.77
4836;BME280;2432;51.226;6.904;2022-09-01T13:55:55;101089.97;;;23.45;48.42
4836;BME280;2432;51.226;6.904;2022-09-01T13:58:23;101096.78;;;23.36;47.92
4836;BME280;2432;51.226;6.904;2022-09-01T14:00:49;101096.44;;;23.28;49.29
4836;BME280;2432;51.226;6.904;2022-09-01T14:03:19;101093.97;;;23.25;49.88
4836;BME280;2432;51.226;6.904;2022-09-01T14:05:47;101092.03;;;23.27;50.10
4836;BME280;2432;51.226;6.904;2022-09-01T14:08:17;101094.53;;;23.30;49.26
4836;BME280;2432;51.226;6.904;2022-09-01T14:10:46;101080.19;;;23.31;47.98
4836;BME280;2432;51.226;6.904;2022-09-01T14:13:14;101081.69;;;23.35;46.82
4836;BME280;2432;51.226;6.904;2022-09-01T14:15:41;101078.94;;;23.37;48.12
4836;BME280;2432;51.226;6.904;2022-09-01T14:18:08;101078.94;;;23.37;44.77
4836;BME280;2432;51.226;6.904;2022-09-01T14:20:37;101084.72;;;23.44;44.04
4836;BME280;2432;51.226;6.904;2022-09-01T14:23:07;101078.22;;;23.48;43.95
4836;BME280;2432;51.226;6.904;2022-09-01T14:25:36;101074.69;;;23.47;44.23
4836;BME280;2432;51.226;6.904;2022-09-01T14:28:06;101076.81;;;23.42;45.99
4836;BME280;2432;51.226;6.904;2022-09-01T14:30:33;101069.97;;;23.38;46.24
4836;BME280;2432;51.226;6.904;2022-09-01T14:33:00;101069.50;;;23.31;47.01
4836;BME280;2432;51.226;6.904;2022-09-01T14:35:29;101080.81;;;23.22;47.40
4836;BME280;2432;51.226;6.904;2022-09-01T14:37:59;101083.13;;;23.14;46.72
4836;BME280;2432;51.226;6.904;2022-09-01T14:40:26;101063.19;;;23.05;48.18
4836;BME280;2432;51.226;6.904;2022-09-01T14:42:54;101066.38;;;22.98;46.19
4836;BME280;2432;51.226;6.904;2022-09-01T14:45:23;101065.72;;;22.94;47.66
4836;BME280;2432;51.226;6.904;2022-09-01T14:47:54;101057.25;;;22.88;48.11
4836;BME280;2432;51.226;6.904;2022-09-01T14:50:22;101052.00;;;22.86;47.19